sensor_id;sensor_type;location;lat;lon;timestamp;pressure;altitude;pressure_sealevel;temperature;humidity
77897;BME280;67092;64.282;21.056;2023-05-10T00:01:37;101362.41;;;21.75;25.02
77897;BME280;67092;64.282;21.056;2023-05-10T00:04:02;101359.02;;;21.66;24.88
77897;BME280;67092;64.282;21.056;2023-05-10T00:06:28;101359.90;;;21.80;24.68
77897;BME280;67092;64.282;21.056;2023-05-10T00:08:54;101360.53;;;21.75;24.94
77897;BME280;67092;64.282;21.056;2023-05-10T00:11:19;101361.24;;;21.55;24.85
77897;BME280;67092;64.282;21.056;2023-05-10T00:13:45;101360.85;;;22.16;24.51
77897;BME280;67092;64.282;21.056;2023-05-10T00:16:10;101361.19;;;21.66;24.74
77897;BME280;67092;64.282;21.056;2023-05-10T00:18:36;101359.59;;;21.47;24.93
77897;BME280;67092;64.282;21.056;2023-05-10T00:21:02;101363.04;;;21.68;24.73
77897;BME280;67092;64.282;21.056;2023-05-10T00:23:27;101364.02;;;21.74;24.88
77897;BME280;67092;64.282;21.056;2023-05-10T00:25:53;101365.77;;;22.19;24.50
77897;BME280;67092;64.282;21.056;2023-05-10T00:28:19;101368.71;;;21.44;24.95
77897;BME280;67092;64.282;21.056;2023-05-10T00:30:44;101362.97;;;21.67;24.70
77897;BME280;67092;64.282;21.056;2023-05-10T00:33:10;101361.71;;;21.88;24.70
77897;BME280;67092;64.282;21.056;2023-05-10T00:35:35;101356.29;;;21.72;24.93
77897;BME280;67092;64.282;21.056;2023-05-10T00:38:01;101359.20;;;21.73;24.65
77897;BME280;67092;64.282;21.056;2023-05-10T00:40:27;101353.78;;;21.17;25.42
77897;BME280;67092;64.282;21.056;2023-05-10T00:42:52;101350.42;;;21.87;24.83
77897;BME280;67092;64.282;21.056;2023-05-10T00:45:18;101349.78;;;21.83;24.84
77897;BME280;67092;64.282;21.056;2023-05-10T00:47:44;101348.12;;;21.45;24.98
77897;BME280;67092;64.282;21.056;2023-05-10T00:50:10;101358.17;;;21.39;25.19
77897;BME280;67092;64.282;21.056;2023-05-10T00:52:35;101358.37;;;21.72;25.14
77897;BME280;67092;64.282;21.056;2023-05-10T00:55:00;101360.58;;;21.59;25.28
77897;BME280;67092;64.282;21.056;2023-05-10T00:57:26;101363.00;;;21.69;25.38
77897;BME280;67092;64.282;21.056;2023-05-10T00:59:52;101369.03;;;21.61;25.27
77897;BME280;67092;64.282;21.056;2023-05-10T01:02:17;101372.22;;;22.10;25.04
77897;BME280;67092;64.282;21.056;2023-05-10T01:04:43;101366.85;;;21.85;24.79
77897;BME280;67092;64.282;21.056;2023-05-10T01:07:09;101363.21;;;21.89;24.76
77897;BME280;67092;64.282;21.056;2023-05-10T01:09:34;101363.55;;;21.73;24.88
77897;BME280;67092;64.282;21.056;2023-05-10T01:12:00;101365.72;;;21.38;25.29
77897;BME280;67092;64.282;21.056;2023-05-10T01:14:26;101367.85;;;21.23;25.42
77897;BME280;67092;64.282;21.056;2023-05-10T01:16:52;101375.04;;;22.06;24.93
77897;BME280;67092;64.282;21.056;2023-05-10T01:19:21;101374.33;;;22.17;25.14
77897;BME280;67092;64.282;21.056;2023-05-10T01:21:49;101373.45;;;21.84;24.91
77897;BME280;67092;64.282;21.056;2023-05-10T01:24:22;101379.21;;;21.79;24.94
77897;BME280;67092;64.282;21.056;2023-05-10T01:29:14;101377.90;;;21.71;24.99
77897;BME280;67092;64.282;21.056;2023-05-10T01:31:35;101382.70;;;21.91;24.80
77897;BME280;67092;64.282;21.056;2023-05-10T01:33:55;101383.11;;;21.40;25.27
77897;BME280;67092;64.282;21.056;2023-05-10T01:36:22;101380.46;;;21.61;25.17
77897;BME280;67092;64.282;21.056;2023-05-10T01:38:46;101381.05;;;21.82;25.13
77897;BME280;67092;64.282;21.056;2023-05-10T01:41:14;101379.97;;;21.61;25.07
77897;BME280;67092;64.282;21.056;2023-05-10T01:43:40;101376.43;;;21.73;25.12
77897;BME280;67092;64.282;21.056;2023-05-10T01:46:04;101376.76;;;22.29;24.85
77897;BME280;67092;64.282;21.056;2023-05-10T01:48:25;101375.79;;;21.85;24.90
77897;BME280;67092;64.282;21.056;2023-05-10T01:50:52;101380.98;;;21.54;25.21
77897;BME280;67092;64.282;21.056;2023-05-10T01:53:19;101380.65;;;21.64;25.41
77897;BME280;67092;64.282;21.056;2023-05-10T01:55:46;101376.42;;;21.44;25.37
77897;BME280;67092;64.282;21.056;2023-05-10T01:58:10;101372.78;;;21.29;25.53
77897;BME280;67092;64.282;21.056;2023-05-10T02:00:33;101369.09;;;21.52;25.25
77897;BME280;67092;64.282;21.056;2023-05-10T02:03:00;101369.52;;;22.00;25.32
77897;BME280;67092;64.282;21.056;2023-05-10T02:05:24;101365.61;;;21.48;25.33
77897;BME280;67092;64.282;21.056;2023-05-10T02:07:50;101367.51;;;21.79;25.15
77897;BME280;67092;64.282;21.056;2023-05-10T02:10:16;101372.63;;;21.75;25.38
77897;BME280;67092;64.282;21.056;2023-05-10T02:12:42;101373.02;;;21.55;25.35
77897;BME280;67092;64.282;21.056;2023-05-10T02:15:08;101369.33;;;22.13;24.76
77897;BME280;67092;64.282;21.056;2023-05-10T02:17:33;101373.21;;;21.90;25.04
77897;BME280;67092;64.282;21.056;2023-05-10T02:19:59;101374.75;;;21.74;25.15
77897;BME280;67092;64.282;21.056;2023-05-10T02:22:24;101373.40;;;21.87;25.17
77897;BME280;67092;64.282;21.056;2023-05-10T02:24:49;101372.49;;;21.98;24.90
77897;BME280;67092;64.282;21.056;2023-05-10T02:27:15;101376.06;;;21.65;25.18
77897;BME280;67092;64.282;21.056;2023-05-10T02:29:40;101376.46;;;21.52;25.29
77897;BME280;67092;64.282;21.056;2023-05-10T02:32:06;101375.94;;;21.73;25.12
77897;BME280;67092;64.282;21.056;2023-05-10T02:34:31;101378.93;;;21.58;25.31
77897;BME280;67092;64.282;21.056;2023-05-10T02:36:57;101378.66;;;21.50;25.53
77897;BME280;67092;64.282;21.056;2023-05-10T02:39:23;101382.65;;;21.34;25.52
77897;BME280;67092;64.282;21.056;2023-05-10T02:41:49;101376.19;;;21.44;25.40
77897;BME280;67092;64.282;21.056;2023-05-10T02:44:15;101382.83;;;21.85;25.24
77897;BME280;67092;64.282;21.056;2023-05-10T02:46:39;101384.35;;;21.53;25.29
77897;BME280;67092;64.282;21.056;2023-05-10T02:49:05;101382.23;;;21.53;25.28
77897;BME280;67092;64.282;21.056;2023-05-10T02:51:32;101387.27;;;21.96;25.34
77897;BME280;67092;64.282;21.056;2023-05-10T02:53:57;101386.88;;;21.84;25.00
77897;BME280;67092;64.282;21.056;2023-05-10T02:56:28;101384.60;;;21.43;25.39
77897;BME280;67092;64.282;21.056;2023-05-10T02:58:47;101386.73;;;21.52;25.25
77897;BME280;67092;64.282;21.056;2023-05-10T03:01:13;101391.53;;;21.56;25.51
77897;BME280;67092;64.282;21.056;2023-05-10T03:03:39;101387.64;;;21.50;25.55
77897;BME280;67092;64.282;21.056;2023-05-10T03:06:05;101391.08;;;22.11;24.99
77897;BME280;67092;64.282;21.056;2023-05-10T03:08:30;101384.97;;;21.36;25.67
77897;BME280;67092;64.282;21.056;2023-05-10T03:11:09;101382.84;;;21.56;25.51
77897;BME280;67092;64.282;21.056;2023-05-10T03:13:31;101378.39;;;21.36;25.44
77897;BME280;67092;64.282;21.056;2023-05-10T03:15:54;101380.13;;;21.79;25.23
77897;BME280;67092;64.282;21.056;2023-05-10T03:18:17;101379.04;;;21.50;25.44
77897;BME280;67092;64.282;21.056;2023-05-10T03:20:41;101382.17;;;21.62;25.17
77897;BME280;67092;64.282;21.056;2023-05-10T03:23:11;101387.63;;;22.04;24.74
77897;BME280;67092;64.282;21.056;2023-05-10T03:25:29;101383.62;;;21.36;25.61
77897;BME280;67092;64.282;21.056;2023-05-10T03:27:56;101387.06;;;21.65;25.23
77897;BME280;67092;64.282;21.056;2023-05-10T03:30:21;101382.38;;;21.64;25.36
77897;BME280;67092;64.282;21.056;2023-05-10T03:32:46;101385.12;;;21.48;25.51
77897;BME280;67092;64.282;21.056;2023-05-10T03:35:12;101384.12;;;21.36;25.39
77897;BME280;67092;64.282;21.056;2023-05-10T03:37:37;101385.56;;;21.68;25.11
77897;BME280;67092;64.282;21.056;2023-05-10T03:40:04;101385.21;;;22.01;25.22
77897;BME280;67092;64.282;21.056;2023-05-10T03:42:29;101389.92;;;21.42;25.33
77897;BME280;67092;64.282;21.056;2023-05-10T03:44:54;101391.15;;;21.78;25.22
77897;BME280;67092;64.282;21.056;2023-05-10T03:47:20;101390.98;;;21.55;25.15
77897;BME280;67092;64.282;21.056;2023-05-10T03:49:45;101391.01;;;21.48;25.24
77897;BME280;67092;64.282;21.056;2023-05-10T03:52:11;101387.75;;;21.75;25.24
77897;BME280;67092;64.282;21.056;2023-05-10T03:54:37;101393.74;;;21.45;25.27
77897;BME280;67092;64.282;21.056;2023-05-10T03:57:02;101391.81;;;21.13;25.56
77897;BME280;67092;64.282;21.056;2023-05-10T03:59:28;101389.98;;;21.20;25.45
77897;BME280;67092;64.282;21.056;2023-05-10T04:01:53;101386.16;;;21.90;25.28
77897;BME280;67092;64.282;21.056;2023-05-10T04:04:19;101383.42;;;22.07;25.09
77897;BME280;67092;64.282;21.056;2023-05-10T04:06:45;101383.58;;;21.37;25.30
77897;BME280;67092;64.282;21.056;2023-05-10T04:09:10;101384.56;;;21.73;25.41
77897;BME280;67092;64.282;21.056;2023-05-10T04:11:36;101390.91;;;21.68;25.20
77897;BME280;67092;64.282;21.056;2023-05-10T04:14:02;101390.81;;;21.33;25.35
77897;BME280;67092;64.282;21.056;2023-05-10T04:16:27;101392.70;;;21.27;25.40
77897;BME280;67092;64.282;21.056;2023-05-10T04:18:53;101389.97;;;21.43;25.59
77897;BME280;67092;64.282;21.056;2023-05-10T04:21:18;101381.78;;;21.70;25.34
77897;BME280;67092;64.282;21.056;2023-05-10T04:23:44;101384.82;;;21.50;25.27
77897;BME280;67092;64.282;21.056;2023-05-10T04:26:10;101381.22;;;21.71;25.02
77897;BME280;67092;64.282;21.056;2023-05-10T04:28:36;101379.34;;;21.35;25.39
77897;BME280;67092;64.282;21.056;2023-05-10T04:31:02;101379.33;;;21.37;25.61
77897;BME280;67092;64.282;21.056;2023-05-10T04:33:26;101378.70;;;21.51;25.48
77897;BME280;67092;64.282;21.056;2023-05-10T04:35:52;101378.69;;;21.38;25.39
77897;BME280;67092;64.282;21.056;2023-05-10T04:38:18;101375.13;;;21.69;25.31
77897;BME280;67092;64.282;21.056;2023-05-10T04:40:43;101380.38;;;21.83;25.19
77897;BME280;67092;64.282;21.056;2023-05-10T04:43:09;101374.83;;;21.77;25.23
77897;BME280;67092;64.282;21.056;2023-05-10T04:45:35;101378.05;;;21.50;25.25
77897;BME280;67092;64.282;21.056;2023-05-10T04:48:00;101374.51;;;21.78;25.07
77897;BME280;67092;64.282;21.056;2023-05-10T04:50:26;101371.47;;;21.79;25.23
77897;BME280;67092;64.282;21.056;2023-05-10T04:52:51;101370.95;;;22.04;25.01
77897;BME280;67092;64.282;21.056;2023-05-10T04:55:17;101367.15;;;21.69;25.11
77897;BME280;67092;64.282;21.056;2023-05-10T04:57:43;101365.96;;;21.57;25.28
77897;BME280;67092;64.282;21.056;2023-05-10T05:00:09;101367.17;;;21.41;25.43
77897;BME280;67092;64.282;21.056;2023-05-10T05:02:34;101369.84;;;21.87;25.09
77897;BME280;67092;64.282;21.056;2023-05-10T05:04:59;101368.18;;;21.51;25.40
77897;BME280;67092;64.282;21.056;2023-05-10T05:07:25;101371.90;;;21.48;25.42
77897;BME280;67092;64.282;21.056;2023-05-10T05:09:51;101371.80;;;21.62;25.30
77897;BME280;67092;64.282;21.056;2023-05-10T05:12:16;101374.37;;;21.88;25.56
77897;BME280;67092;64.282;21.056;2023-05-10T05:14:42;101370.01;;;22.10;25.36
77897;BME280;67092;64.282;21.056;2023-05-10T05:17:08;101370.90;;;21.62;25.35
77897;BME280;67092;64.282;21.056;2023-05-10T05:19:33;101369.95;;;21.65;25.31
77897;BME280;67092;64.282;21.056;2023-05-10T05:21:59;101361.53;;;21.61;25.57
77897;BME280;67092;64.282;21.056;2023-05-10T05:24:25;101358.65;;;21.74;25.46
77897;BME280;67092;64.282;21.056;2023-05-10T05:26:50;101359.60;;;21.80;25.61
77897;BME280;67092;64.282;21.056;2023-05-10T05:29:16;101356.83;;;21.67;25.44
77897;BME280;67092;64.282;21.056;2023-05-10T05:31:41;101359.19;;;21.45;25.69
77897;BME280;67092;64.282;21.056;2023-05-10T05:34:07;101359.65;;;21.53;25.57
77897;BME280;67092;64.282;21.056;2023-05-10T05:36:36;101357.38;;;21.74;25.41
77897;BME280;67092;64.282;21.056;2023-05-10T05:38:58;101351.70;;;21.64;25.46
77897;BME280;67092;64.282;21.056;2023-05-10T05:41:24;101354.28;;;21.80;25.60
77897;BME280;67092;64.282;21.056;2023-05-10T05:43:49;101359.50;;;21.59;25.49
77897;BME280;67092;64.282;21.056;2023-05-10T05:46:15;101360.65;;;21.43;25.70
77897;BME280;67092;64.282;21.056;2023-05-10T05:48:41;101363.59;;;21.31;25.74
77897;BME280;67092;64.282;21.056;2023-05-10T05:51:06;101362.84;;;21.17;25.68
77897;BME280;67092;64.282;21.056;2023-05-10T05:53:32;101363.77;;;21.36;25.49
77897;BME280;67092;64.282;21.056;2023-05-10T05:55:58;101371.28;;;21.38;25.46
77897;BME280;67092;64.282;21.056;2023-05-10T05:58:23;101370.23;;;21.01;25.86
77897;BME280;67092;64.282;21.056;2023-05-10T06:00:49;101368.94;;;21.39;25.71
77897;BME280;67092;64.282;21.056;2023-05-10T06:03:14;101369.91;;;21.28;25.80
77897;BME280;67092;64.282;21.056;2023-05-10T06:05:40;101370.80;;;21.33;25.57
77897;BME280;67092;64.282;21.056;2023-05-10T06:08:05;101371.18;;;21.53;25.38
77897;BME280;67092;64.282;21.056;2023-05-10T06:10:31;101374.64;;;21.28;25.61
77897;BME280;67092;64.282;21.056;2023-05-10T06:12:57;101375.52;;;21.27;25.57
77897;BME280;67092;64.282;21.056;2023-05-10T06:15:22;101373.46;;;21.66;25.44
77897;BME280;67092;64.282;21.056;2023-05-10T06:17:48;101371.99;;;21.56;25.38
77897;BME280;67092;64.282;21.056;2023-05-10T06:20:14;101368.39;;;21.80;25.06
77897;BME280;67092;64.282;21.056;2023-05-10T06:22:39;101370.15;;;21.69;25.33
77897;BME280;67092;64.282;21.056;2023-05-10T06:25:06;101367.59;;;21.27;25.50
77897;BME280;67092;64.282;21.056;2023-05-10T06:27:31;101364.49;;;21.46;25.25
77897;BME280;67092;64.282;21.056;2023-05-10T06:29:56;101366.37;;;21.29;25.46
77897;BME280;67092;64.282;21.056;2023-05-10T06:32:21;101366.05;;;21.06;25.72
77897;BME280;67092;64.282;21.056;2023-05-10T06:34:47;101369.43;;;21.26;25.50
77897;BME280;67092;64.282;21.056;2023-05-10T06:37:13;101363.19;;;21.79;25.22
77897;BME280;67092;64.282;21.056;2023-05-10T06:39:38;101368.95;;;21.39;25.62
77897;BME280;67092;64.282;21.056;2023-05-10T06:42:04;101367.43;;;21.69;25.31
77897;BME280;67092;64.282;21.056;2023-05-10T06:44:30;101368.23;;;21.59;25.26
77897;BME280;67092;64.282;21.056;2023-05-10T06:46:55;101364.45;;;21.24;25.51
77897;BME280;67092;64.282;21.056;2023-05-10T06:49:21;101361.74;;;21.42;25.34
77897;BME280;67092;64.282;21.056;2023-05-10T06:51:46;101365.37;;;21.55;25.44
77897;BME280;67092;64.282;21.056;2023-05-10T06:54:12;101364.39;;;21.56;25.28
77897;BME280;67092;64.282;21.056;2023-05-10T06:56:38;101360.14;;;21.41;25.37
77897;BME280;67092;64.282;21.056;2023-05-10T06:59:03;101369.15;;;21.88;25.20
77897;BME280;67092;64.282;21.056;2023-05-10T07:01:29;101369.98;;;21.17;25.77
77897;BME280;67092;64.282;21.056;2023-05-10T07:03:54;101370.37;;;21.88;25.45
77897;BME280;67092;64.282;21.056;2023-05-10T07:06:20;101368.41;;;21.99;25.03
77897;BME280;67092;64.282;21.056;2023-05-10T07:08:46;101366.51;;;22.49;25.09
77897;BME280;67092;64.282;21.056;2023-05-10T07:11:11;101367.10;;;21.92;25.16
77897;BME280;67092;64.282;21.056;2023-05-10T07:13:37;101365.56;;;22.06;25.07
77897;BME280;67092;64.282;21.056;2023-05-10T07:16:03;101366.17;;;21.66;25.45
77897;BME280;67092;64.282;21.056;2023-05-10T07:18:28;101363.48;;;21.91;25.21
77897;BME280;67092;64.282;21.056;2023-05-10T07:20:54;101360.49;;;22.36;25.13
77897;BME280;67092;64.282;21.056;2023-05-10T07:23:19;101365.76;;;21.92;25.29
77897;BME280;67092;64.282;21.056;2023-05-10T07:25:45;101368.21;;;21.93;25.27
77897;BME280;67092;64.282;21.056;2023-05-10T07:28:11;101367.20;;;21.77;25.72
77897;BME280;67092;64.282;21.056;2023-05-10T07:30:36;101368.77;;;22.48;25.08
77897;BME280;67092;64.282;21.056;2023-05-10T07:33:02;101371.49;;;21.95;25.36
77897;BME280;67092;64.282;21.056;2023-05-10T07:35:28;101371.12;;;21.73;25.59
77897;BME280;67092;64.282;21.056;2023-05-10T07:37:53;101366.51;;;21.80;25.79
77897;BME280;67092;64.282;21.056;2023-05-10T07:40:19;101368.72;;;21.32;26.08
77897;BME280;67092;64.282;21.056;2023-05-10T07:42:44;101370.52;;;21.90;25.46
77897;BME280;67092;64.282;21.056;2023-05-10T07:45:11;101370.19;;;22.16;25.25
77897;BME280;67092;64.282;21.056;2023-05-10T07:47:36;101371.51;;;22.24;25.16
77897;BME280;67092;64.282;21.056;2023-05-10T07:50:01;101370.32;;;22.20;25.22
77897;BME280;67092;64.282;21.056;2023-05-10T07:52:27;101377.87;;;22.10;25.32
77897;BME280;67092;64.282;21.056;2023-05-10T07:54:53;101374.33;;;21.91;25.30
77897;BME280;67092;64.282;21.056;2023-05-10T07:57:18;101378.70;;;22.27;25.14
77897;BME280;67092;64.282;21.056;2023-05-10T07:59:44;101377.39;;;22.35;24.83
77897;BME280;67092;64.282;21.056;2023-05-10T08:02:09;101379.06;;;23.10;24.37
77897;BME280;67092;64.282;21.056;2023-05-10T08:04:35;101375.39;;;22.25;25.23
77897;BME280;67092;64.282;21.056;2023-05-10T08:07:01;101379.39;;;22.01;25.48
77897;BME280;67092;64.282;21.056;2023-05-10T08:09:26;101379.66;;;22.18;25.57
77897;BME280;67092;64.282;21.056;2023-05-10T08:11:52;101375.10;;;22.42;25.27
77897;BME280;67092;64.282;21.056;2023-05-10T08:14:18;101382.13;;;22.42;25.06
77897;BME280;67092;64.282;21.056;2023-05-10T08:16:48;101384.21;;;21.90;25.47
77897;BME280;67092;64.282;21.056;2023-05-10T08:19:09;101380.17;;;22.33;25.04
77897;BME280;67092;64.282;21.056;2023-05-10T08:21:34;101382.44;;;22.20;24.99
77897;BME280;67092;64.282;21.056;2023-05-10T08:24:00;101385.52;;;22.45;25.03
77897;BME280;67092;64.282;21.056;2023-05-10T08:26:26;101384.52;;;22.46;25.05
77897;BME280;67092;64.282;21.056;2023-05-10T08:28:51;101383.91;;;22.25;25.25
77897;BME280;67092;64.282;21.056;2023-05-10T08:31:17;101381.53;;;22.51;24.94
77897;BME280;67092;64.282;21.056;2023-05-10T08:33:43;101388.86;;;22.06;25.12
77897;BME280;67092;64.282;21.056;2023-05-10T08:36:08;101383.68;;;22.57;24.79
77897;BME280;67092;64.282;21.056;2023-05-10T08:38:34;101389.26;;;22.38;24.73
77897;BME280;67092;64.282;21.056;2023-05-10T08:41:01;101398.09;;;22.04;24.97
77897;BME280;67092;64.282;21.056;2023-05-10T08:43:27;101397.03;;;22.12;24.87
77897;BME280;67092;64.282;21.056;2023-05-10T08:45:53;101400.41;;;21.98;25.21
77897;BME280;67092;64.282;21.056;2023-05-10T08:48:16;101397.69;;;22.67;24.55
77897;BME280;67092;64.282;21.056;2023-05-10T08:50:44;101393.52;;;22.52;24.66
77897;BME280;67092;64.282;21.056;2023-05-10T08:53:10;101396.30;;;22.53;24.55
77897;BME280;67092;64.282;21.056;2023-05-10T08:55:33;101394.28;;;22.09;24.75
77897;BME280;67092;64.282;21.056;2023-05-10T08:57:59;101392.76;;;22.66;24.40
77897;BME280;67092;64.282;21.056;2023-05-10T09:00:24;101391.02;;;22.50;24.29
77897;BME280;67092;64.282;21.056;2023-05-10T09:02:50;101392.67;;;22.31;24.47
77897;BME280;67092;64.282;21.056;2023-05-10T09:05:16;101394.57;;;21.88;25.07
77897;BME280;67092;64.282;21.056;2023-05-10T09:07:41;101396.04;;;22.14;24.84
77897;BME280;67092;64.282;21.056;2023-05-10T09:10:09;101396.00;;;22.00;24.52
77897;BME280;67092;64.282;21.056;2023-05-10T09:12:32;101395.47;;;22.68;23.56
77897;BME280;67092;64.282;21.056;2023-05-10T09:14:59;101399.00;;;22.56;23.28
77897;BME280;67092;64.282;21.056;2023-05-10T09:17:25;101387.69;;;22.40;22.88
77897;BME280;67092;64.282;21.056;2023-05-10T09:19:49;101395.15;;;22.26;22.64
77897;BME280;67092;64.282;21.056;2023-05-10T09:22:15;101395.37;;;21.99;22.79
77897;BME280;67092;64.282;21.056;2023-05-10T09:24:42;101391.46;;;22.04;22.65
77897;BME280;67092;64.282;21.056;2023-05-10T09:27:06;101392.02;;;22.16;22.50
77897;BME280;67092;64.282;21.056;2023-05-10T09:29:39;101392.79;;;22.07;22.48
77897;BME280;67092;64.282;21.056;2023-05-10T09:31:57;101390.73;;;22.13;22.40
77897;BME280;67092;64.282;21.056;2023-05-10T09:34:29;101391.19;;;22.10;22.37
77897;BME280;67092;64.282;21.056;2023-05-10T09:36:51;101388.82;;;22.44;22.10
77897;BME280;67092;64.282;21.056;2023-05-10T09:39:14;101386.78;;;22.40;22.25
77897;BME280;67092;64.282;21.056;2023-05-10T09:41:42;101382.43;;;22.18;22.22
77897;BME280;67092;64.282;21.056;2023-05-10T09:44:07;101387.62;;;22.13;22.23
77897;BME280;67092;64.282;21.056;2023-05-10T09:46:35;101383.35;;;22.37;21.93
77897;BME280;67092;64.282;21.056;2023-05-10T09:48:56;101383.67;;;22.25;21.91
77897;BME280;67092;64.282;21.056;2023-05-10T09:51:24;101384.15;;;21.90;22.11
77897;BME280;67092;64.282;21.056;2023-05-10T09:53:48;101377.12;;;22.48;21.78
77897;BME280;67092;64.282;21.056;2023-05-10T09:56:13;101377.67;;;22.21;21.76
77897;BME280;67092;64.282;21.056;2023-05-10T09:58:39;101378.44;;;22.15;21.99
77897;BME280;67092;64.282;21.056;2023-05-10T10:01:04;101375.87;;;22.19;21.78
77897;BME280;67092;64.282;21.056;2023-05-10T10:03:31;101381.27;;;22.13;21.95
77897;BME280;67092;64.282;21.056;2023-05-10T10:05:56;101382.02;;;22.08;22.03
77897;BME280;67092;64.282;21.056;2023-05-10T10:08:22;101378.01;;;21.88;21.95
77897;BME280;67092;64.282;21.056;2023-05-10T10:10:47;101376.63;;;22.02;21.82
77897;BME280;67092;64.282;21.056;2023-05-10T10:13:13;101375.80;;;22.50;21.78
77897;BME280;67092;64.282;21.056;2023-05-10T10:15:38;101375.61;;;22.14;21.88
77897;BME280;67092;64.282;21.056;2023-05-10T10:18:05;101380.92;;;22.39;21.67
77897;BME280;67092;64.282;21.056;2023-05-10T10:20:30;101378.73;;;22.24;21.59
77897;BME280;67092;64.282;21.056;2023-05-10T10:22:55;101376.76;;;22.22;21.59
77897;BME280;67092;64.282;21.056;2023-05-10T10:25:21;101379.64;;;22.03;21.74
77897;BME280;67092;64.282;21.056;2023-05-10T10:27:54;101381.06;;;21.94;21.77
77897;BME280;67092;64.282;21.056;2023-05-10T10:30:21;101377.97;;;21.80;21.90
77897;BME280;67092;64.282;21.056;2023-05-10T10:32:48;101376.90;;;22.15;21.62
77897;BME280;67092;64.282;21.056;2023-05-10T10:35:04;101375.23;;;22.19;21.56
77897;BME280;67092;64.282;21.056;2023-05-10T10:37:43;101370.96;;;22.61;21.39
77897;BME280;67092;64.282;21.056;2023-05-10T10:39:55;101373.71;;;22.18;21.54
77897;BME280;67092;64.282;21.056;2023-05-10T10:44:46;101366.68;;;22.20;21.51
77897;BME280;67092;64.282;21.056;2023-05-10T10:47:23;101367.50;;;21.88;21.76
77897;BME280;67092;64.282;21.056;2023-05-10T10:49:43;101369.30;;;22.14;21.71
77897;BME280;67092;64.282;21.056;2023-05-10T10:52:14;101368.49;;;22.06;21.60
77897;BME280;67092;64.282;21.056;2023-05-10T10:54:28;101366.85;;;21.51;22.06
77897;BME280;67092;64.282;21.056;2023-05-10T10:59:26;101378.89;;;21.98;21.65
77897;BME280;67092;64.282;21.056;2023-05-10T11:01:45;101369.08;;;22.16;21.49
77897;BME280;67092;64.282;21.056;2023-05-10T11:04:17;101373.53;;;22.00;21.62
77897;BME280;67092;64.282;21.056;2023-05-10T11:06:36;101369.36;;;21.89;21.70
77897;BME280;67092;64.282;21.056;2023-05-10T11:09:06;101371.69;;;22.12;21.54
77897;BME280;67092;64.282;21.056;2023-05-10T11:11:28;101369.09;;;21.40;22.13
77897;BME280;67092;64.282;21.056;2023-05-10T11:13:53;101374.24;;;22.29;21.59
77897;BME280;67092;64.282;21.056;2023-05-10T11:16:20;101377.08;;;21.90;21.89
77897;BME280;67092;64.282;21.056;2023-05-10T11:18:54;101376.65;;;21.91;21.89
77897;BME280;67092;64.282;21.056;2023-05-10T11:21:10;101366.49;;;22.41;21.46
77897;BME280;67092;64.282;21.056;2023-05-10T11:23:48;101369.90;;;22.02;21.79
77897;BME280;67092;64.282;21.056;2023-05-10T11:26:01;101366.32;;;22.31;21.72
77897;BME280;67092;64.282;21.056;2023-05-10T11:28:27;101368.01;;;22.59;21.52
77897;BME280;67092;64.282;21.056;2023-05-10T11:30:53;101371.02;;;22.11;21.70
77897;BME280;67092;64.282;21.056;2023-05-10T11:33:20;101371.39;;;22.11;21.48
77897;BME280;67092;64.282;21.056;2023-05-10T11:35:44;101367.19;;;22.40;21.43
77897;BME280;67092;64.282;21.056;2023-05-10T11:38:10;101368.06;;;22.13;21.46
77897;BME280;67092;64.282;21.056;2023-05-10T11:40:35;101370.82;;;21.93;21.64
77897;BME280;67092;64.282;21.056;2023-05-10T11:43:01;101366.60;;;22.12;21.48
77897;BME280;67092;64.282;21.056;2023-05-10T11:45:26;101367.65;;;22.16;21.43
77897;BME280;67092;64.282;21.056;2023-05-10T11:47:52;101367.54;;;22.43;21.41
77897;BME280;67092;64.282;21.056;2023-05-10T11:50:18;101370.80;;;21.85;21.68
77897;BME280;67092;64.282;21.056;2023-05-10T11:52:43;101372.36;;;22.10;21.48
77897;BME280;67092;64.282;21.056;2023-05-10T11:55:09;101371.78;;;21.93;21.60
77897;BME280;67092;64.282;21.056;2023-05-10T11:57:35;101383.06;;;21.96;21.67
77897;BME280;67092;64.282;21.056;2023-05-10T12:00:00;101381.24;;;21.92;21.90
77897;BME280;67092;64.282;21.056;2023-05-10T12:02:26;101382.52;;;21.57;22.18
77897;BME280;67092;64.282;21.056;2023-05-10T12:04:51;101383.04;;;21.78;22.05
77897;BME280;67092;64.282;21.056;2023-05-10T12:07:17;101382.19;;;22.22;21.72
77897;BME280;67092;64.282;21.056;2023-05-10T12:09:43;101384.75;;;21.79;22.06
77897;BME280;67092;64.282;21.056;2023-05-10T12:12:08;101381.17;;;21.74;22.12
77897;BME280;67092;64.282;21.056;2023-05-10T12:14:34;101382.32;;;21.46;22.41
77897;BME280;67092;64.282;21.056;2023-05-10T12:16:59;101384.26;;;21.66;22.25
77897;BME280;67092;64.282;21.056;2023-05-10T12:19:25;101388.08;;;22.10;22.11
77897;BME280;67092;64.282;21.056;2023-05-10T12:21:50;101391.61;;;22.68;21.85
77897;BME280;67092;64.282;21.056;2023-05-10T12:24:16;101389.07;;;22.23;21.81
77897;BME280;67092;64.282;21.056;2023-05-10T12:26:42;101385.31;;;22.66;21.48
77897;BME280;67092;64.282;21.056;2023-05-10T12:29:14;101380.97;;;22.46;21.65
77897;BME280;67092;64.282;21.056;2023-05-10T12:31:33;101385.93;;;22.15;21.72
77897;BME280;67092;64.282;21.056;2023-05-10T12:33:58;101387.18;;;22.02;22.06
77897;BME280;67092;64.282;21.056;2023-05-10T12:36:24;101388.61;;;21.65;22.39
77897;BME280;67092;64.282;21.056;2023-05-10T12:38:50;101382.99;;;22.30;22.72